Time;durP1;ratioP1;P1;durP2;ratioP2;P2;SDS_P1;SDS_P2;PMS_P1;PMS_P2;Temp;Humidity;BMP_temperature;BMP_pressure;BME280_temperature;BME280_humidity;BME280_pressure;Samples;Min_cycle;Max_cycle;Signal;HPM_P1;HPM_P2
2021/06/10 04:01:58;;;;;;;32.40;29.20;;;16.20;99.90;;;;;;5273343;23;20846;-63
2021/06/10 04:04:25;;;;;;;34.33;30.83;;;16.30;99.90;;;;;;4977781;28;20462;-63
2021/06/10 04:06:52;;;;;;;34.57;30.97;;;16.40;99.90;;;;;;4976616;28;20465;-64
2021/06/10 04:09:19;;;;;;;37.57;33.77;;;16.40;99.90;;;;;;4978038;28;20498;-64
2021/06/10 04:11:45;;;;;;;35.70;32.00;;;16.40;99.90;;;;;;4977443;28;20482;-62
2021/06/10 04:14:11;;;;;;;34.10;30.50;;;16.50;99.90;;;;;;4978092;28;20438;-63
2021/06/10 04:16:38;;;;;;;35.30;31.70;;;16.50;99.90;;;;;;4977928;28;20864;-62
2021/06/10 04:19:05;;;;;;;34.83;31.33;;;16.60;99.90;;;;;;4977583;28;20459;-63
2021/06/10 04:21:32;;;;;;;35.30;31.83;;;16.70;99.90;;;;;;4977699;28;20471;-62
2021/06/10 04:23:58;;;;;;;36.10;32.40;;;16.60;99.90;;;;;;4977614;28;20458;-64
2021/06/10 04:26:24;;;;;;;36.77;32.90;;;16.70;99.90;;;;;;4977860;28;20473;-64
2021/06/10 04:28:50;;;;;;;36.77;33.20;;;16.70;99.90;;;;;;4977765;28;20494;-64
2021/06/10 04:31:18;;;;;;;34.60;31.00;;;16.70;99.90;;;;;;4977400;28;20482;-63
2021/06/10 04:33:45;;;;;;;34.50;31.00;;;16.80;99.90;;;;;;4977249;28;20952;-63
2021/06/10 04:36:13;;;;;;;37.63;33.73;;;16.70;99.90;;;;;;4977404;28;20461;-62
2021/06/10 04:38:40;;;;;;;36.90;33.20;;;16.80;99.90;;;;;;4977171;28;20968;-63
2021/06/10 04:41:07;;;;;;;36.43;32.73;;;16.70;99.90;;;;;;4977319;28;20490;-63
2021/06/10 04:43:33;;;;;;;36.43;32.50;;;16.70;99.90;;;;;;4977678;28;20454;-63
2021/06/10 04:46:00;;;;;;;34.27;30.70;;;16.80;99.90;;;;;;4977802;28;20493;-63
2021/06/10 04:48:26;;;;;;;33.90;30.47;;;16.90;99.90;;;;;;4977144;28;20455;-63
2021/06/10 04:50:53;;;;;;;32.40;29.43;;;16.90;99.90;;;;;;4977498;28;20485;-63
2021/06/10 04:53:21;;;;;;;33.13;29.83;;;16.90;99.90;;;;;;4977198;28;20459;-62
2021/06/10 04:55:47;;;;;;;31.97;28.97;;;16.90;99.90;;;;;;4977203;28;20825;-64
2021/06/10 04:58:13;;;;;;;31.10;28.10;;;17.00;99.90;;;;;;4977195;28;20459;-63
2021/06/10 05:00:40;;;;;;;31.07;28.10;;;16.90;99.90;;;;;;4976769;28;20486;-63
2021/06/10 05:03:07;;;;;;;32.63;29.23;;;16.90;99.90;;;;;;4976985;28;20439;-65
2021/06/10 05:05:33;;;;;;;27.33;24.70;;;16.90;99.90;;;;;;4976808;28;20455;-65
2021/06/10 05:07:59;;;;;;;29.83;26.83;;;17.00;99.90;;;;;;4976441;28;20443;-64
2021/06/10 05:10:27;;;;;;;26.90;24.50;;;17.20;99.90;;;;;;4976420;28;20455;-64
2021/06/10 05:12:53;;;;;;;27.03;24.70;;;17.40;99.90;;;;;;4976223;28;20533;-63
2021/06/10 05:15:20;;;;;;;29.57;26.80;;;17.40;99.90;;;;;;4976309;28;20509;-62
2021/06/10 05:17:46;;;;;;;28.77;26.03;;;17.40;99.90;;;;;;4976020;28;20561;-63
2021/06/10 05:20:13;;;;;;;29.73;26.90;;;17.40;99.90;;;;;;4976148;28;20457;-63
2021/06/10 05:22:40;;;;;;;29.50;26.90;;;17.30;99.90;;;;;;4976292;28;20454;-64
2021/06/10 05:25:07;;;;;;;27.47;24.77;;;17.40;99.90;;;;;;4974830;28;20453;-63
2021/06/10 05:27:35;;;;;;;27.53;24.93;;;17.50;99.90;;;;;;4976294;28;20435;-62
2021/06/10 05:30:01;;;;;;;29.43;26.70;;;17.50;99.90;;;;;;4976519;28;20453;-63
2021/06/10 05:32:28;;;;;;;26.80;24.00;;;17.60;99.90;;;;;;4976022;28;20506;-63
2021/06/10 05:34:54;;;;;;;27.47;24.73;;;17.70;99.90;;;;;;4976152;28;20470;-62
2021/06/10 05:37:20;;;;;;;27.10;24.80;;;17.80;99.90;;;;;;4975859;28;20450;-61
2021/06/10 05:39:46;;;;;;;27.63;25.13;;;17.80;99.90;;;;;;4975991;28;20463;-62
2021/06/10 05:42:14;;;;;;;27.20;24.90;;;18.00;99.90;;;;;;4975962;28;20798;-63
2021/06/10 05:44:42;;;;;;;25.83;23.73;;;18.20;99.90;;;;;;4975952;28;20469;-62
2021/06/10 05:47:09;;;;;;;26.30;24.10;;;18.30;99.90;;;;;;4976033;28;20486;-62
2021/06/10 05:49:35;;;;;;;26.37;24.20;;;18.40;99.90;;;;;;4975781;28;20455;-63
2021/06/10 05:52:02;;;;;;;26.23;24.10;;;18.60;99.90;;;;;;4975610;28;20533;-63
2021/06/10 05:54:28;;;;;;;22.23;20.40;;;18.80;99.90;;;;;;4975420;28;20960;-64
2021/06/10 05:56:55;;;;;;;22.10;20.20;;;19.00;99.90;;;;;;4975691;28;20466;-64
2021/06/10 05:59:21;;;;;;;24.43;22.43;;;19.20;99.90;;;;;;4977181;28;20542;-64
2021/06/10 06:01:48;;;;;;;24.03;21.87;;;19.30;99.90;;;;;;4977583;28;20475;-64
2021/06/10 06:04:14;;;;;;;23.60;21.60;;;19.40;99.90;;;;;;4977488;28;20496;-64
2021/06/10 06:06:41;;;;;;;23.50;21.50;;;19.50;99.90;;;;;;4977172;28;20454;-64
2021/06/10 06:09:07;;;;;;;22.40;20.67;;;19.70;99.90;;;;;;4976228;28;20481;-64
2021/06/10 06:11:34;;;;;;;22.50;20.60;;;19.90;99.90;;;;;;4975746;28;20478;-64
2021/06/10 06:14:07;;;;;;;22.07;20.00;;;20.10;99.90;;;;;;4975728;28;20447;-64
2021/06/10 06:16:34;;;;;;;22.47;20.67;;;20.30;99.90;;;;;;4975569;28;20533;-63
2021/06/10 06:19:02;;;;;;;21.70;19.80;;;20.00;99.90;;;;;;4975586;28;20451;-64
2021/06/10 06:21:28;;;;;;;21.67;19.70;;;20.10;99.90;;;;;;4974904;28;20470;-64
2021/06/10 06:23:57;;;;;;;21.30;19.60;;;20.50;99.90;;;;;;4975218;28;20447;-64
2021/06/10 06:26:23;;;;;;;19.93;18.33;;;20.70;99.90;;;;;;4976142;28;20442;-64
2021/06/10 06:28:50;;;;;;;21.50;19.60;;;21.10;99.90;;;;;;4974988;28;20458;-63
2021/06/10 06:31:16;;;;;;;20.00;18.50;;;21.40;99.90;;;;;;4975168;28;20538;-63
2021/06/10 06:33:43;;;;;;;20.97;19.17;;;21.60;99.90;;;;;;4975356;28;20446;-63
2021/06/10 06:36:10;;;;;;;19.30;17.80;;;21.70;99.90;;;;;;4975265;28;20454;-64
2021/06/10 06:38:36;;;;;;;19.73;18.23;;;22.00;99.90;;;;;;4975608;28;20828;-64
2021/06/10 06:41:02;;;;;;;17.47;16.17;;;22.40;99.90;;;;;;4975435;28;20529;-64
2021/06/10 06:43:30;;;;;;;18.90;17.40;;;22.70;99.90;;;;;;4975065;28;20961;-63
2021/06/10 06:45:57;;;;;;;18.90;17.27;;;22.80;99.90;;;;;;4985654;28;20482;-63
2021/06/10 06:48:23;;;;;;;18.80;17.40;;;22.60;99.90;;;;;;4988911;28;20531;-63
2021/06/10 06:50:49;;;;;;;18.97;17.47;;;22.80;99.90;;;;;;4988434;28;20482;-63
2021/06/10 06:53:17;;;;;;;19.13;17.57;;;22.70;99.90;;;;;;4982114;28;20479;-64
2021/06/10 06:55:44;;;;;;;18.03;16.53;;;22.60;99.90;;;;;;4975299;28;20833;-64
2021/06/10 06:58:10;;;;;;;17.67;16.20;;;23.20;99.90;;;;;;4975748;28;20502;-63
2021/06/10 07:00:36;;;;;;;17.40;16.10;;;23.70;99.90;;;;;;4975004;28;20533;-64
2021/06/10 07:03:03;;;;;;;17.70;16.23;;;24.40;99.90;;;;;;4974958;28;20439;-64
2021/06/10 07:05:29;;;;;;;16.30;15.10;;;25.00;99.90;;;;;;4974955;28;20458;-64
2021/06/10 07:07:55;;;;;;;17.20;15.90;;;25.50;99.90;;;;;;4974853;28;20582;-64
2021/06/10 07:10:23;;;;;;;16.20;14.73;;;25.90;99.90;;;;;;4975845;28;20762;-64
2021/06/10 07:12:49;;;;;;;16.60;15.20;;;26.00;99.90;;;;;;4974742;28;20482;-63
2021/06/10 07:15:16;;;;;;;16.10;14.70;;;25.80;99.90;;;;;;4974747;28;20925;-64
2021/06/10 07:17:42;;;;;;;16.30;14.80;;;26.30;99.90;;;;;;4975147;28;20446;-63
2021/06/10 07:20:10;;;;;;;16.20;15.03;;;26.70;99.90;;;;;;4974753;28;20439;-63
2021/06/10 07:22:38;;;;;;;14.70;13.50;;;27.30;99.90;;;;;;4974859;28;20470;-63
2021/06/10 07:25:06;;;;;;;16.17;14.93;;;27.70;99.90;;;;;;4975014;28;20509;-64
2021/06/10 07:27:33;;;;;;;20.13;18.43;;;28.00;99.90;;;;;;4974929;28;20483;-63
2021/06/10 07:30:00;;;;;;;16.10;14.90;;;28.00;99.90;;;;;;4974968;28;20459;-63
2021/06/10 07:32:26;;;;;;;20.13;18.27;;;28.30;99.90;;;;;;4974597;28;20478;-63
2021/06/10 07:34:52;;;;;;;18.00;16.47;;;28.80;99.90;;;;;;4974576;28;20462;-64
2021/06/10 07:37:19;;;;;;;16.63;15.33;;;28.40;99.90;;;;;;4974568;28;20454;-63
2021/06/10 07:39:45;;;;;;;17.87;16.47;;;27.90;99.90;;;;;;4974550;28;20866;-64
2021/06/10 07:42:12;;;;;;;17.10;15.90;;;27.80;99.90;;;;;;4978161;28;20482;-64
2021/06/10 07:44:40;;;;;;;16.33;14.90;;;27.60;99.90;;;;;;4978472;28;20951;-63
2021/06/10 07:47:06;;;;;;;15.67;14.47;;;27.80;99.90;;;;;;4978055;28;20458;-64
2021/06/10 07:49:33;;;;;;;16.80;15.60;;;28.10;99.90;;;;;;4978148;28;20872;-64
2021/06/10 07:51:59;;;;;;;18.37;16.97;;;28.20;99.90;;;;;;4977769;28;20482;-65
2021/06/10 07:54:26;;;;;;;19.33;17.83;;;28.10;99.90;;;;;;4977592;28;20459;-63
2021/06/10 07:56:53;;;;;;;18.30;17.00;;;27.90;99.90;;;;;;4977591;28;20501;-64
2021/06/10 07:59:24;;;;;;;17.00;15.77;;;27.40;99.90;;;;;;4978271;28;20537;-65
2021/06/10 08:01:52;;;;;;;17.30;15.93;;;27.40;99.90;;;;;;4977448;28;20529;-63
2021/06/10 08:04:19;;;;;;;18.57;16.97;;;27.40;99.90;;;;;;4977696;28;20454;-65
2021/06/10 08:06:45;;;;;;;17.90;16.40;;;27.50;99.90;;;;;;4977579;28;20509;-63
2021/06/10 08:09:13;;;;;;;17.13;15.83;;;27.40;99.90;;;;;;4977927;28;20465;-63
2021/06/10 08:11:40;;;;;;;19.07;17.60;;;27.40;99.90;;;;;;4977404;28;20478;-63
2021/06/10 08:14:06;;;;;;;18.77;16.80;;;27.40;99.90;;;;;;4977400;28;20462;-63
2021/06/10 08:16:32;;;;;;;16.17;14.87;;;27.30;99.90;;;;;;4977151;28;21009;-63
2021/06/10 08:19:01;;;;;;;16.20;15.00;;;27.50;99.90;;;;;;4977562;28;20458;-63
2021/06/10 08:21:27;;;;;;;18.10;16.50;;;28.10;99.90;;;;;;4977366;28;20513;-64
2021/06/10 08:23:53;;;;;;;17.07;15.70;;;28.70;99.90;;;;;;4977344;28;20458;-64
2021/06/10 08:26:19;;;;;;;17.23;15.83;;;29.10;99.90;;;;;;4982001;28;20488;-63
2021/06/10 08:28:46;;;;;;;18.60;17.00;;;29.60;99.90;;;;;;4982801;28;20486;-64
2021/06/10 08:31:12;;;;;;;18.33;16.93;;;29.90;99.90;;;;;;4979835;28;20505;-63
2021/06/10 08:33:38;;;;;;;19.07;17.37;;;30.10;99.90;;;;;;4979958;28;20466;-64
2021/06/10 08:36:06;;;;;;;19.10;17.20;;;30.20;99.90;;;;;;4976777;28;20501;-63
2021/06/10 08:38:33;;;;;;;17.47;16.23;;;29.70;99.90;;;;;;4976749;28;20871;-62
2021/06/10 08:40:59;;;;;;;17.30;16.20;;;30.30;99.90;;;;;;4977402;28;20525;-64
2021/06/10 08:43:26;;;;;;;17.53;16.33;;;30.80;99.40;;;;;;4977352;28;20451;-64
2021/06/10 08:45:59;;;;;;;18.57;17.27;;;31.20;98.60;;;;;;4989064;28;20549;-63
2021/06/10 08:48:25;;;;;;;17.67;16.37;;;31.60;95.70;;;;;;4977208;28;20438;-63
2021/06/10 08:50:52;;;;;;;17.67;16.37;;;32.10;95.40;;;;;;4977038;28;20892;-63
2021/06/10 08:53:20;;;;;;;18.30;17.10;;;32.40;93.80;;;;;;4976248;28;20470;-63
2021/06/10 08:55:48;;;;;;;17.53;16.33;;;31.80;93.70;;;;;;4976881;28;20459;-64
2021/06/10 08:58:14;;;;;;;15.63;14.40;;;32.30;92.50;;;;;;4976627;28;20458;-63
2021/06/10 09:00:40;;;;;;;18.80;17.20;;;32.80;92.60;;;;;;4976523;28;20485;-62
2021/06/10 09:03:07;;;;;;;15.90;14.50;;;32.10;91.20;;;;;;4976741;28;20442;-63
2021/06/10 09:05:33;;;;;;;16.83;15.73;;;31.60;93.00;;;;;;4976444;28;20513;-63
2021/06/10 09:08:02;;;;;;;16.40;15.30;;;31.60;92.90;;;;;;4976507;28;20459;-64
2021/06/10 09:10:32;;;;;;;16.60;15.30;;;31.90;93.20;;;;;;4976303;28;20553;-65
2021/06/10 09:12:59;;;;;;;17.00;15.87;;;32.20;93.30;;;;;;4976376;28;20485;-65
2021/06/10 09:15:27;;;;;;;15.90;14.70;;;32.40;91.80;;;;;;4976194;28;20964;-65
2021/06/10 09:17:55;;;;;;;17.67;16.30;;;32.30;95.00;;;;;;4976350;28;20459;-65
2021/06/10 09:20:31;;;;;;;15.03;13.90;;;33.00;91.90;;;;;;4976288;28;20458;-65
2021/06/10 09:23:15;;;;;;;16.60;15.30;;;33.40;92.20;;;;;;4976297;28;20449;-65
2021/06/10 09:25:44;;;;;;;15.87;14.67;;;32.90;91.70;;;;;;4974618;28;20622;-64
2021/06/10 09:28:10;;;;;;;16.50;15.40;;;33.60;91.40;;;;;;4975950;28;20881;-64
2021/06/10 09:30:41;;;;;;;15.90;14.90;;;32.80;93.20;;;;;;4976390;28;20470;-64
2021/06/10 09:33:10;;;;;;;17.20;15.97;;;33.50;90.60;;;;;;4975985;28;20473;-63
2021/06/10 09:35:38;;;;;;;16.27;15.00;;;34.00;90.00;;;;;;4976035;28;20481;-64
2021/06/10 09:38:06;;;;;;;17.47;16.17;;;33.40;91.50;;;;;;4975821;28;20912;-64
2021/06/10 09:40:33;;;;;;;16.30;15.30;;;33.70;90.00;;;;;;4975835;28;20469;-63
2021/06/10 09:43:01;;;;;;;16.90;15.50;;;33.70;89.00;;;;;;4975783;28;20451;-64
2021/06/10 09:45:29;;;;;;;19.77;18.07;;;34.10;87.40;;;;;;4975775;28;20439;-64
2021/06/10 09:47:59;;;;;;;16.03;14.97;;;34.20;83.40;;;;;;4975354;28;21007;-64
2021/06/10 09:50:28;;;;;;;15.47;14.47;;;34.20;85.50;;;;;;4975663;28;20444;-63
2021/06/10 09:52:56;;;;;;;19.70;17.97;;;34.50;84.70;;;;;;4975628;28;20524;-64
2021/06/10 09:55:31;;;;;;;19.03;17.63;;;33.80;84.40;;;;;;4975475;28;20979;-64
2021/06/10 09:57:57;;;;;;;17.17;15.80;;;34.20;88.00;;;;;;4975484;28;20458;-65
2021/06/10 10:00:26;;;;;;;15.87;14.87;;;33.90;86.70;;;;;;4975870;28;20454;-64
2021/06/10 10:02:53;;;;;;;14.97;13.97;;;34.40;87.20;;;;;;4975577;28;20443;-65
2021/06/10 10:05:22;;;;;;;17.03;15.93;;;34.70;84.70;;;;;;4974792;28;20480;-64
2021/06/10 10:07:48;;;;;;;18.70;17.40;;;34.60;82.70;;;;;;4976978;28;20510;-65
2021/06/10 10:10:15;;;;;;;17.07;15.70;;;34.10;81.60;;;;;;4975872;28;20512;-66
2021/06/10 10:12:42;;;;;;;16.83;15.60;;;33.50;83.40;;;;;;4975708;28;20478;-64
2021/06/10 10:15:09;;;;;;;16.47;15.37;;;33.00;85.20;;;;;;4975010;28;20941;-64
2021/06/10 10:17:37;;;;;;;17.70;16.40;;;33.30;85.80;;;;;;4975041;28;20458;-64
2021/06/10 10:20:05;;;;;;;16.00;14.80;;;33.20;87.70;;;;;;4975982;28;20849;-64
2021/06/10 10:22:31;;;;;;;17.43;16.20;;;33.40;90.20;;;;;;4975221;28;20474;-67
2021/06/10 10:24:58;;;;;;;16.90;15.80;;;33.00;85.20;;;;;;4975172;28;20461;-64
2021/06/10 10:27:25;;;;;;;19.00;17.60;;;32.40;88.00;;;;;;4978679;28;20525;-66
2021/06/10 10:29:54;;;;;;;17.57;16.17;;;32.30;88.00;;;;;;4978449;28;20535;-64
2021/06/10 10:32:22;;;;;;;17.73;16.53;;;32.50;90.00;;;;;;4975252;28;20485;-65
2021/06/10 10:34:51;;;;;;;16.97;15.80;;;32.80;90.40;;;;;;4975804;28;20504;-64
2021/06/10 10:37:22;;;;;;;15.30;14.20;;;33.40;89.60;;;;;;4975160;28;20474;-64
2021/06/10 10:39:49;;;;;;;15.37;14.30;;;34.00;88.40;;;;;;4975203;28;20533;-65
2021/06/10 10:42:33;;;;;;;15.20;14.20;;;34.40;85.70;;;;;;4975199;28;20474;-65
2021/06/10 10:45:18;;;;;;;16.67;15.40;;;34.60;78.20;;;;;;4974780;28;20435;-65
2021/06/10 10:47:47;;;;;;;16.57;15.07;;;34.30;75.60;;;;;;4975463;28;20449;-64
2021/06/10 10:50:30;;;;;;;17.00;16.00;;;34.40;79.80;;;;;;4974852;28;20785;-64
2021/06/10 10:52:57;;;;;;;16.30;15.30;;;33.70;76.90;;;;;;4974956;28;20514;-65
2021/06/10 10:55:30;;;;;;;16.00;15.00;;;32.90;77.90;;;;;;4975152;28;20864;-64
2021/06/10 10:58:07;;;;;;;15.60;14.20;;;32.70;83.10;;;;;;4976422;28;20445;-62
2021/06/10 11:00:51;;;;;;;15.77;14.67;;;32.50;86.20;;;;;;4978735;28;20462;-63
2021/06/10 11:03:29;;;;;;;16.03;14.77;;;33.00;89.00;;;;;;4978101;28;20596;-63
2021/06/10 11:05:58;;;;;;;15.73;14.53;;;33.60;86.60;;;;;;4977650;28;20997;-63
2021/06/10 11:08:49;;;;;;;15.50;14.20;;;34.30;84.70;;;;;;4976547;28;20464;-62
2021/06/10 11:11:15;;;;;;;16.40;15.30;;;34.70;78.80;;;;;;4975184;28;20489;-64
2021/06/10 11:13:48;;;;;;;16.40;15.30;;;35.10;76.40;;;;;;4974904;28;20474;-64
2021/06/10 11:16:15;;;;;;;15.97;14.77;;;34.70;79.20;;;;;;4977254;28;21015;-63
2021/06/10 11:18:52;;;;;;;17.77;16.57;;;34.70;79.30;;;;;;4979339;28;20481;-65
2021/06/10 11:21:52;;;;;;;18.00;16.90;;;34.00;79.50;;;;;;4978831;28;20842;-63
2021/06/10 11:24:21;;;;;;;19.77;18.20;;;33.40;80.50;;;;;;4978878;28;20439;-63
2021/06/10 11:26:52;;;;;;;19.17;17.77;;;32.90;83.00;;;;;;4978509;28;21041;-63
2021/06/10 11:29:18;;;;;;;18.33;16.93;;;32.40;82.60;;;;;;4978483;28;20443;-63
2021/06/10 11:32:29;;;;;;;19.00;17.60;;;31.90;85.00;;;;;;4978545;28;20481;-63
2021/06/10 11:34:57;;;;;;;17.87;16.27;;;31.20;83.70;;;;;;4980780;28;20489;-64
2021/06/10 11:37:27;;;;;;;18.97;17.27;;;31.00;85.60;;;;;;4983365;28;20450;-64
2021/06/10 11:39:54;;;;;;;16.50;15.40;;;30.60;89.70;;;;;;4980532;28;20462;-64
2021/06/10 11:42:23;;;;;;;17.40;16.20;;;30.80;82.50;;;;;;4978684;28;20474;-63
2021/06/10 11:44:51;;;;;;;17.67;16.37;;;31.20;84.50;;;;;;4978573;28;20455;-64
2021/06/10 11:47:35;;;;;;;15.93;14.83;;;30.60;87.40;;;;;;4978130;28;20455;-64
2021/06/10 11:50:01;;;;;;;15.40;14.40;;;30.40;85.50;;;;;;4978199;28;20445;-64
2021/06/10 11:52:52;;;;;;;14.13;13.23;;;30.20;86.10;;;;;;4978185;28;20509;-66
2021/06/10 11:55:19;;;;;;;14.47;13.47;;;30.20;90.30;;;;;;4978083;28;20435;-64
2021/06/10 11:57:53;;;;;;;15.00;14.00;;;29.80;89.40;;;;;;4978253;28;20457;-64
2021/06/10 12:00:26;;;;;;;14.83;13.70;;;29.80;90.80;;;;;;4978341;28;20445;-64
2021/06/10 12:02:58;;;;;;;14.90;14.00;;;29.60;90.40;;;;;;4978137;28;20438;-64
2021/06/10 12:05:26;;;;;;;14.63;13.67;;;29.50;86.70;;;;;;4978250;28;20454;-64
2021/06/10 12:08:06;;;;;;;14.50;13.37;;;29.40;88.60;;;;;;4977751;28;20454;-63
2021/06/10 12:10:33;;;;;;;13.93;12.93;;;29.30;90.60;;;;;;4977703;28;20434;-63
2021/06/10 12:12:59;;;;;;;13.60;12.50;;;29.10;90.90;;;;;;4978219;28;20478;-63
2021/06/10 12:15:33;;;;;;;11.97;11.17;;;28.80;90.90;;;;;;4977550;28;20466;-64
2021/06/10 12:18:03;;;;;;;12.17;11.27;;;28.80;90.40;;;;;;4977604;28;20805;-63
2021/06/10 12:20:31;;;;;;;16.37;15.17;;;28.90;92.00;;;;;;4977656;28;20454;-63
2021/06/10 12:22:58;;;;;;;14.97;13.97;;;28.80;92.10;;;;;;4977508;28;20454;-64
2021/06/10 12:25:26;;;;;;;16.20;15.10;;;28.60;94.60;;;;;;4977528;28;20466;-64
2021/06/10 12:27:53;;;;;;;17.00;15.80;;;28.80;93.80;;;;;;4976269;28;20890;-64
2021/06/10 12:30:40;;;;;;;16.17;14.77;;;28.80;93.90;;;;;;4977413;28;20838;-64
2021/06/10 12:33:17;;;;;;;19.17;17.83;;;28.70;93.90;;;;;;4972624;28;20481;-66
2021/06/10 12:35:45;;;;;;;16.70;15.60;;;28.50;96.00;;;;;;4977285;28;20443;-63
2021/06/10 12:38:13;;;;;;;14.87;13.97;;;28.20;97.10;;;;;;4977024;28;20946;-63
2021/06/10 12:40:41;;;;;;;12.27;11.13;;;27.60;97.30;;;;;;4977181;28;20842;-63
2021/06/10 12:43:09;;;;;;;13.03;12.13;;;27.40;97.00;;;;;;4977200;28;20451;-62
2021/06/10 12:45:36;;;;;;;13.40;12.50;;;27.10;99.40;;;;;;4977101;28;20458;-64
2021/06/10 12:48:18;;;;;;;14.70;13.60;;;26.60;99.90;;;;;;4977633;28;20529;-63
2021/06/10 12:50:46;;;;;;;14.17;13.17;;;26.40;99.90;;;;;;4977145;28;20479;-64
2021/06/10 12:53:16;;;;;;;12.53;11.73;;;26.30;99.90;;;;;;4976685;28;20482;-62
2021/06/10 12:55:43;;;;;;;13.60;12.57;;;26.10;99.90;;;;;;4977326;28;20447;-64
2021/06/10 12:58:14;;;;;;;14.20;13.10;;;26.10;99.90;;;;;;4976890;28;20935;-63
2021/06/10 13:00:42;;;;;;;12.60;11.70;;;26.10;99.90;;;;;;4976517;28;20545;-64
2021/06/10 13:03:09;;;;;;;11.20;10.50;;;26.00;99.90;;;;;;4976667;28;20458;-63
2021/06/10 13:05:36;;;;;;;10.80;10.00;;;25.90;99.90;;;;;;4976370;28;20988;-63
2021/06/10 13:08:04;;;;;;;9.63;9.00;;;25.80;99.90;;;;;;4976682;28;20509;-64
2021/06/10 13:10:36;;;;;;;9.80;8.17;;;26.00;99.90;;;;;;4976534;28;20787;-64
2021/06/10 13:13:03;;;;;;;9.83;9.13;;;26.20;99.90;;;;;;4976649;28;20502;-64
2021/06/10 13:15:31;;;;;;;9.47;8.83;;;26.50;99.90;;;;;;4976775;28;20450;-64
2021/06/10 13:17:59;;;;;;;7.57;7.07;;;26.60;99.90;;;;;;4976588;28;20515;-64
2021/06/10 13:20:56;;;;;;;6.93;6.43;;;26.90;99.90;;;;;;4976500;28;20459;-64
2021/06/10 13:23:37;;;;;;;7.20;6.70;;;27.10;99.90;;;;;;4916566;29;20441;-63
2021/06/10 13:26:09;;;;;;;7.20;6.70;;;27.30;99.90;;;;;;4967942;28;20462;-63
2021/06/10 13:28:37;;;;;;;7.27;6.80;;;27.60;99.90;;;;;;4976320;28;20474;-64
2021/06/10 13:31:16;;;;;;;11.20;10.40;;;27.60;99.90;;;;;;4976515;28;20470;-64
2021/06/10 13:33:43;;;;;;;12.77;11.93;;;28.20;99.90;;;;;;4976300;28;21043;-64
2021/06/10 13:36:15;;;;;;;11.30;10.27;;;28.50;99.90;;;;;;4977837;28;20823;-64
2021/06/10 13:38:43;;;;;;;10.63;9.83;;;28.70;99.90;;;;;;4980044;28;20446;-63
2021/06/10 13:41:12;;;;;;;9.33;8.83;;;28.70;99.10;;;;;;4977150;28;20482;-64
2021/06/10 13:43:40;;;;;;;10.00;9.30;;;28.60;98.20;;;;;;4976930;28;20482;-63
2021/06/10 13:46:06;;;;;;;9.63;8.93;;;28.60;96.20;;;;;;4976205;28;20862;-63
2021/06/10 13:48:33;;;;;;;9.57;8.97;;;28.60;97.00;;;;;;4976063;28;20838;-63
2021/06/10 13:50:59;;;;;;;9.17;8.57;;;28.50;96.10;;;;;;4975938;28;20479;-64
2021/06/10 13:53:26;;;;;;;9.13;8.60;;;28.40;97.40;;;;;;4975828;28;20474;-63
2021/06/10 13:55:55;;;;;;;9.40;8.90;;;28.20;96.60;;;;;;4976227;28;20454;-63
2021/06/10 13:58:22;;;;;;;10.33;9.53;;;28.20;98.10;;;;;;4975978;28;20458;-63
2021/06/10 14:00:48;;;;;;;10.30;9.70;;;28.20;97.90;;;;;;4976076;28;20856;-64
2021/06/10 14:03:16;;;;;;;12.20;11.17;;;27.90;99.50;;;;;;4976128;28;20455;-63
2021/06/10 14:05:42;;;;;;;12.50;11.40;;;27.80;99.80;;;;;;4975946;28;20486;-64
2021/06/10 14:08:08;;;;;;;15.27;14.13;;;27.30;99.90;;;;;;4975899;28;20454;-64
2021/06/10 14:10:34;;;;;;;15.90;14.90;;;27.30;99.90;;;;;;4975576;28;20458;-64
2021/06/10 14:13:02;;;;;;;16.07;14.70;;;26.90;99.90;;;;;;4975808;28;20887;-64
2021/06/10 14:15:28;;;;;;;16.17;14.87;;;26.70;99.90;;;;;;4975542;28;20458;-64
2021/06/10 14:17:54;;;;;;;15.73;14.57;;;26.50;99.90;;;;;;4976040;28;20481;-64
2021/06/10 14:20:21;;;;;;;16.07;14.80;;;26.30;99.90;;;;;;4975470;28;20455;-64
2021/06/10 14:22:47;;;;;;;16.13;14.93;;;26.30;99.90;;;;;;4975430;28;20482;-63
2021/06/10 14:25:14;;;;;;;17.80;16.37;;;26.10;99.90;;;;;;4976212;28;20781;-63
2021/06/10 14:27:41;;;;;;;17.63;16.03;;;26.00;99.90;;;;;;4977396;28;20459;-63
2021/06/10 14:30:22;;;;;;;17.17;15.83;;;25.90;99.90;;;;;;4978253;28;20459;-64
2021/06/10 14:32:48;;;;;;;19.50;17.90;;;25.90;99.90;;;;;;4977507;28;20470;-64
2021/06/10 14:35:15;;;;;;;17.20;16.10;;;25.80;99.90;;;;;;4974966;28;21019;-64
2021/06/10 14:37:42;;;;;;;19.60;18.10;;;25.80;99.90;;;;;;4976473;28;20904;-64
2021/06/10 14:40:10;;;;;;;18.10;16.80;;;25.70;99.90;;;;;;4983392;28;20462;-64
2021/06/10 14:42:37;;;;;;;18.90;17.53;;;25.70;99.90;;;;;;4980629;28;20467;-64
2021/06/10 14:45:04;;;;;;;17.47;15.90;;;25.80;99.90;;;;;;4975730;28;20454;-64
2021/06/10 14:47:32;;;;;;;17.80;16.60;;;26.10;99.90;;;;;;4975416;28;20454;-68
2021/06/10 14:49:58;;;;;;;16.57;15.37;;;26.30;99.90;;;;;;4975666;28;20462;-63
2021/06/10 14:52:24;;;;;;;16.53;15.43;;;26.50;99.90;;;;;;4978749;28;20555;-63
2021/06/10 14:54:51;;;;;;;15.07;14.07;;;26.70;99.90;;;;;;4978982;28;20466;-64
2021/06/10 14:57:17;;;;;;;16.17;14.77;;;27.00;99.90;;;;;;4978525;28;20855;-63
2021/06/10 14:59:43;;;;;;;15.87;14.67;;;27.50;99.90;;;;;;4979615;28;20458;-64
2021/06/10 15:02:10;;;;;;;15.33;14.23;;;27.80;99.90;;;;;;4978541;28;20489;-64
2021/06/10 15:04:37;;;;;;;15.97;14.90;;;27.90;99.90;;;;;;4978689;28;20446;-64
2021/06/10 15:07:03;;;;;;;15.73;14.63;;;28.10;99.90;;;;;;4978743;28;20969;-64
2021/06/10 15:09:30;;;;;;;14.20;13.10;;;28.10;99.90;;;;;;4978489;28;20945;-63
2021/06/10 15:11:56;;;;;;;16.83;15.53;;;28.60;99.90;;;;;;4978315;28;20478;-64
2021/06/10 15:14:22;;;;;;;14.30;13.30;;;28.70;99.90;;;;;;4978683;28;20450;-63
2021/06/10 15:16:49;;;;;;;13.40;12.30;;;28.90;99.90;;;;;;4978539;28;20458;-64
2021/06/10 15:19:15;;;;;;;14.13;13.23;;;28.90;99.90;;;;;;4978416;28;20458;-64
2021/06/10 15:21:43;;;;;;;10.67;9.97;;;28.70;99.90;;;;;;4979079;28;20474;-64
2021/06/10 15:24:09;;;;;;;10.10;9.47;;;28.50;99.90;;;;;;4978756;28;20461;-64
2021/06/10 15:26:36;;;;;;;9.10;8.50;;;28.10;99.90;;;;;;4978629;28;20517;-64
2021/06/10 15:29:02;;;;;;;9.57;8.87;;;27.60;99.90;;;;;;4978610;28;20945;-64
2021/06/10 15:31:29;;;;;;;10.57;9.87;;;27.20;99.90;;;;;;4978768;28;20486;-64
2021/06/10 15:33:55;;;;;;;11.33;10.33;;;27.10;99.90;;;;;;4977937;28;20486;-64
2021/06/10 15:36:21;;;;;;;9.40;8.80;;;26.90;99.90;;;;;;4978341;28;20462;-63
2021/06/10 15:38:49;;;;;;;9.00;8.40;;;26.80;99.90;;;;;;4978430;28;20458;-64
2021/06/10 15:41:15;;;;;;;8.50;8.00;;;26.50;99.90;;;;;;4978339;28;20474;-63
2021/06/10 15:43:42;;;;;;;8.83;8.23;;;26.50;99.90;;;;;;4978379;28;20450;-64
2021/06/10 15:46:08;;;;;;;8.20;7.50;;;26.30;99.90;;;;;;4978604;28;20450;-64
2021/06/10 15:48:36;;;;;;;8.10;7.57;;;26.40;99.90;;;;;;4979764;28;20462;-63
2021/06/10 15:51:02;;;;;;;9.03;8.43;;;26.10;99.90;;;;;;4978492;28;21003;-64
2021/06/10 15:53:29;;;;;;;8.70;8.20;;;26.20;99.90;;;;;;4978751;28;20470;-64
2021/06/10 15:55:59;;;;;;;9.13;8.53;;;26.20;99.90;;;;;;4978553;28;20450;-64
2021/06/10 15:58:26;;;;;;;11.23;10.53;;;26.10;99.90;;;;;;4978735;28;20481;-63
2021/06/10 16:00:52;;;;;;;10.17;9.47;;;26.10;99.90;;;;;;4978019;28;20843;-63
2021/06/10 16:03:18;;;;;;;9.90;9.30;;;26.10;99.90;;;;;;4976652;28;20427;-63
2021/06/10 16:05:45;;;;;;;9.27;8.47;;;26.10;99.90;;;;;;4977605;28;20953;-62
2021/06/10 16:08:11;;;;;;;9.17;8.60;;;26.10;99.90;;;;;;4977855;28;20450;-65
2021/06/10 16:10:37;;;;;;;9.73;9.03;;;26.10;99.90;;;;;;4977559;28;20458;-63
2021/06/10 16:13:05;;;;;;;11.33;10.37;;;26.10;99.90;;;;;;4977714;28;20586;-63
2021/06/10 16:15:31;;;;;;;9.20;8.70;;;26.10;99.90;;;;;;4977548;28;20964;-63
2021/06/10 16:17:57;;;;;;;9.93;9.23;;;26.00;99.90;;;;;;4977506;28;20486;-64
2021/06/10 16:20:24;;;;;;;9.17;8.57;;;26.00;99.90;;;;;;4977458;28;20462;-64
2021/06/10 16:22:50;;;;;;;8.43;7.93;;;25.80;99.90;;;;;;4977459;28;20823;-65
2021/06/10 16:25:17;;;;;;;9.23;8.43;;;25.60;99.90;;;;;;4977285;28;20466;-65
2021/06/10 16:27:45;;;;;;;7.17;6.63;;;25.30;99.90;;;;;;4976671;28;20451;-63
2021/06/10 16:30:15;;;;;;;8.20;7.70;;;25.00;99.90;;;;;;4977213;28;20830;-63
2021/06/10 16:32:42;;;;;;;8.97;8.30;;;24.90;99.90;;;;;;4977141;28;20483;-63
2021/06/10 16:35:11;;;;;;;9.57;8.90;;;24.80;99.90;;;;;;4976849;28;20824;-63
2021/06/10 16:37:38;;;;;;;9.03;8.43;;;24.90;99.90;;;;;;4977061;28;20477;-64